St Croix, Virgin Islands
Current Conditions -  °F | °C
As of 9:00 PM on Tuesday 27 Jan 2015 (Local Time) from TUPJ Reporting Station
Few Clouds Few Clouds  
Wind Chill: 79°   Ceiling: Unl
Heat Index: 82°   Visibility: 6mi
Dew Point: 72°   Wind: 7mph
Humidity: 78%   Direction: 140°SE
Pressure: 30.03"   Gusts: NA
Location:  17.7488°N, 64.7039°W
Report Text: TUPJ 280100Z 14006KT 9999 FEW020 26/22 Q1017 RMK A3004
Loading
Personal Weather Stations






























Interactive Weather Map New forecast layout! Learn more

10-Day Weather Forecast

Advertisements
Track Severe Weather on mobile